Falera, Switzerland
Current Conditions -  °F | °C
As of 7:50 AM on Friday 31 Oct 2014 (Local Time) from LSZS Reporting Station
Clear Clear  
Wind Chill: 23°   Ceiling: Unl
Heat Index: 23°   Visibility: 6mi
Dew Point: 23°   Wind: 0mph
Humidity: 100%   Direction: NA
Pressure: 30.36"   Gusts: NA
Location:  46.8°N, 9.23°E
Report Text: LSZS 310650Z 00000KT CAVOK M05/M05 Q1028
Loading
Personal Weather Stations






























Interactive Weather Map
Tropical Storm Tracking
New forecast layout! Learn more

10-Day Weather Forecast

Advertisements
Track Severe Weather on mobile